WetterOnline ( https://www.wetteronline.de )

Wetter aktuell Giampilieri

Aktuelles Wetter: Messina (51m)

6-stündlich | Neueste Meldungen
Ortszeit Temperatur Wetter
Mi, 21.10. 14:00 21.4° C leicht bewölkt
Mi, 21.10. 8:00 15.0° C leicht bewölkt
Mi, 21.10. 2:00 15.4° C leicht bewölkt
Di, 20.10. 20:00 17.8° C leicht bewölkt
Di, 20.10. 14:00 20.8° C leicht bewölkt
Di, 20.10. 8:00 15.0° C leicht bewölkt
Di, 20.10. 2:00 15.0° C leicht bewölkt
Mo, 19.10. 20:00 17.4° C leicht bewölkt
Ortszeit Temperatur Wetter
Mi, 21.10. 15:00 22.4° C leicht bewölkt
Mi, 21.10. 14:55 22° C leicht bewölkt
Mi, 21.10. 14:00 21.4° C leicht bewölkt
Mi, 21.10. 13:55 21° C leicht bewölkt
Mi, 21.10. 13:00 20.8° C leicht bewölkt
Mi, 21.10. 12:55 21° C leicht bewölkt
Mi, 21.10. 12:00 20.8° C leicht bewölkt
Mi, 21.10. 11:55 21° C leicht bewölkt
Mi, 21.10. 11:00 20.4° C fast wolkenlos
Ortszeit Relative Feuchte Sichtweite
Mi, 21.10. 14:00 50% 25 km
Mi, 21.10. 8:00 86% 16 km
Mi, 21.10. 2:00 84% 16 km
Di, 20.10. 20:00 61% 16 km
Di, 20.10. 14:00 35% 20 km
Di, 20.10. 8:00 81% 20 km
Di, 20.10. 2:00 84% 20 km
Mo, 19.10. 20:00 69% 16 km
Ortszeit Relative Feuchte Sichtweite
Mi, 21.10. 15:00 46% 20 km
Mi, 21.10. 14:55 46% >10 km
Mi, 21.10. 14:00 50% 25 km
Mi, 21.10. 13:55 53% >10 km
Mi, 21.10. 13:00 50% 20 km
Mi, 21.10. 12:55 49% >10 km
Mi, 21.10. 12:00 53% 20 km
Mi, 21.10. 11:55 53% >10 km
Mi, 21.10. 11:00 54% 20 km
Ortszeit Niederschlagsmenge Niederschlagsart
Mi, 21.10. 14:00 0.0 l/m2 in 6 Std. -
Mi, 21.10. 8:00 0.0 l/m2 in 12 Std. -
Mi, 21.10. 2:00 0.0 l/m2 in 6 Std. -
Di, 20.10. 20:00 0.0 l/m2 in 12 Std. -
Di, 20.10. 14:00 0.0 l/m2 in 6 Std. -
Di, 20.10. 8:00 0.0 l/m2 in 12 Std. -
Di, 20.10. 2:00 0.0 l/m2 in 6 Std. -
Mo, 19.10. 20:00 0.0 l/m2 in 12 Std. -
Ortszeit Niederschlagsmenge Niederschlagsart
Mi, 21.10. 15:00 keine Meldung -
Mi, 21.10. 14:55 keine Meldung -
Mi, 21.10. 14:00 keine Meldung -
Mi, 21.10. 13:55 keine Meldung -
Mi, 21.10. 13:00 keine Meldung -
Mi, 21.10. 12:55 keine Meldung -
Mi, 21.10. 12:00 keine Meldung -
Mi, 21.10. 11:55 keine Meldung -
Mi, 21.10. 11:00 keine Meldung -
Ortszeit Stärke Spitze Richtung
km/h Bft. km/h Grad Sektor
Mi, 21.10. 14:00 11 2 - 210° SW
Mi, 21.10. 8:00 2 1 - 270° W
Mi, 21.10. 2:00 0 0 - - -
Di, 20.10. 20:00 4 1 - 310° NW
Di, 20.10. 14:00 9 2 - 350° N
Di, 20.10. 8:00 2 1 - 300° NW
Di, 20.10. 2:00 0 0 - - -
Mo, 19.10. 20:00 4 1 - 330° NW
Ortszeit Stärke Spitze Richtung
km/h Bft. km/h Grad Sektor
Mi, 21.10. 15:00 11 2 - 200° S
Mi, 21.10. 14:55 11 2 - 200° S
Mi, 21.10. 14:00 11 2 - 210° SW
Mi, 21.10. 13:55 11 2 - 210° SW
Mi, 21.10. 13:00 11 2 - 200° S
Mi, 21.10. 12:55 11 2 - 200° S
Mi, 21.10. 12:00 9 2 - 180° S
Mi, 21.10. 11:55 9 2 - 180° S
Mi, 21.10. 11:00 7 2 - 160° S
Ortszeit Untergrenze Bedeckung Gattung
total tief tief mittel hoch
Mi, 21.10. 14:00 1050 m 2/8 2/8 Cu - -
Mi, 21.10. 8:00 900 m 4/8 4/8 Sc - -
Mi, 21.10. 2:00 2400 m 2/8 2/8 - Ac -
Di, 20.10. 20:00 900 m 4/8 4/8 Sc - -
Di, 20.10. 14:00 1050 m 4/8 4/8 Sc - -
Di, 20.10. 8:00 1380 m 3/8 3/8 Sc - -
Di, 20.10. 2:00 3000 m 2/8 2/8 - Ac -
Mo, 19.10. 20:00 750 m 3/8 3/8 Sc - -
Ortszeit Bedeckungsgrad in Achtel und Wolkenuntergrenze
Mi, 21.10. 15:00 2(1050m)
Mi, 21.10. 14:55 1-2(1050m)
Mi, 21.10. 14:00 2(1050m)
Mi, 21.10. 13:55 1-2(1050m)
Mi, 21.10. 13:00 2(1050m)
Mi, 21.10. 12:55 1-2(1050m)
Mi, 21.10. 12:00 2(1050m)
Mi, 21.10. 11:55 1-2(1050m)
Mi, 21.10. 11:00 1(1050m)
Ortszeit Luftdruck NN (hPa) Tendenz (hPa in 3 Std.)
Mi, 21.10. 14:00 1025 - 0,5
Mi, 21.10. 8:00 1024 + 0,2
Mi, 21.10. 2:00 1025 - 0,1
Di, 20.10. 20:00 1024 - 0,3
Di, 20.10. 14:00 1024 + 0,1
Di, 20.10. 8:00 1024 + 0,1
Di, 20.10. 2:00 1025 + 0,9
Mo, 19.10. 20:00 1023 + 0,6
Ortszeit Luftdruck NN (hPa) Tendenz (hPa in 3 Std.)
Mi, 21.10. 15:00 1024 - 0,9
Mi, 21.10. 14:55 1024 keine Meldung
Mi, 21.10. 14:00 1025 - 0,5
Mi, 21.10. 13:55 1024 keine Meldung
Mi, 21.10. 13:00 1025 + 0,3
Mi, 21.10. 12:55 1025 keine Meldung
Mi, 21.10. 12:00 1025 + 0,8
Mi, 21.10. 11:55 1025 keine Meldung
Mi, 21.10. 11:00 1025 + 1,2
Ortszeit Schneehöhe (cm)
Mi, 21.10. 14:00 -
Mi, 21.10. 8:00 0
Mi, 21.10. 2:00 -
Di, 20.10. 20:00 -
Di, 20.10. 14:00 -
Di, 20.10. 8:00 0
Di, 20.10. 2:00 -
Mo, 19.10. 20:00 -
Ortszeit Schneehöhe (cm)
Mi, 21.10. 15:00 -
Mi, 21.10. 14:55 -
Mi, 21.10. 14:00 -
Mi, 21.10. 13:55 -
Mi, 21.10. 13:00 -
Mi, 21.10. 12:55 -
Mi, 21.10. 12:00 -
Mi, 21.10. 11:55 -
Mi, 21.10. 11:00 -
Link zu dieser Seite / Seite empfehlen

Das Wetter in ...